Ashford, Washington
Current Conditions -  °F | °C
As of 3:18 PM on Wednesday 22 Oct 2014 (Local Time) from KGRF Reporting Station
Light Rain Light Rain  
Wind Chill: 57°   Ceiling: 3800
Heat Index: 57°   Visibility: 7mi
Dew Point: 55°   Wind: 6mph
Humidity: 94%   Direction: 130°SE
Pressure: 29.64"   Gusts: NA
Location:  46.76°N, 122.03°W
Report Text: KGRF 222218Z AUTO 13005KT 7SM -RA OVC038 14/13 A2964 RMK AO2
Loading
Personal Weather Stations






























Interactive Weather Map New forecast layout! Learn more

10-Day Weather Forecast

Advertisements
Track Severe Weather on mobile